sensor_id;sensor_type;location;lat;lon;timestamp;pressure;altitude;pressure_sealevel;temperature;humidity
62976;BME280;49071;0.000;0.000;2023-02-04T06:44:08;102477.31;;;17.10;37.03
62976;BME280;49071;0.000;0.000;2023-02-04T06:47:08;102486.03;;;17.10;37.04
62976;BME280;49071;0.000;0.000;2023-02-04T06:50:08;102489.59;;;17.08;37.33
62976;BME280;49071;0.000;0.000;2023-02-04T06:53:09;102489.50;;;17.12;37.11
62976;BME280;49071;0.000;0.000;2023-02-04T06:56:09;102501.59;;;17.22;37.03
62976;BME280;49071;0.000;0.000;2023-02-04T06:59:10;102500.53;;;17.34;36.71
62976;BME280;49071;0.000;0.000;2023-02-04T07:02:10;102505.50;;;17.51;36.60
62976;BME280;49071;0.000;0.000;2023-02-04T07:05:11;102509.63;;;17.69;36.42
62976;BME280;49071;0.000;0.000;2023-02-04T07:08:11;102516.44;;;17.81;36.35
62976;BME280;49071;0.000;0.000;2023-02-04T07:11:11;102521.44;;;17.96;36.16
62976;BME280;49071;0.000;0.000;2023-02-04T07:14:12;102523.88;;;18.07;35.79
62976;BME280;49071;0.000;0.000;2023-02-04T07:17:12;102528.91;;;18.19;35.82
62976;BME280;49071;0.000;0.000;2023-02-04T07:20:12;102527.94;;;18.23;35.95
62976;BME280;49071;0.000;0.000;2023-02-04T07:23:12;102531.41;;;18.25;35.71
62976;BME280;49071;0.000;0.000;2023-02-04T07:26:12;102534.97;;;18.23;35.97
62976;BME280;49071;0.000;0.000;2023-02-04T07:29:12;102548.00;;;18.27;35.67
62976;BME280;49071;0.000;0.000;2023-02-04T07:32:13;102549.72;;;18.30;35.80
62976;BME280;49071;0.000;0.000;2023-02-04T07:35:13;102539.13;;;18.34;35.42
62976;BME280;49071;0.000;0.000;2023-02-04T07:38:13;102547.78;;;18.39;35.71
62976;BME280;49071;0.000;0.000;2023-02-04T07:41:13;102540.63;;;18.48;35.26
62976;BME280;49071;0.000;0.000;2023-02-04T07:44:13;102549.16;;;18.59;35.17
62976;BME280;49071;0.000;0.000;2023-02-04T07:47:14;102547.19;;;18.69;35.36
62976;BME280;49071;0.000;0.000;2023-02-04T07:50:14;102550.59;;;18.75;35.15
62976;BME280;49071;0.000;0.000;2023-02-04T07:53:15;102564.50;;;18.82;35.11
62976;BME280;49071;0.000;0.000;2023-02-04T07:56:15;102561.75;;;18.86;35.25
62976;BME280;49071;0.000;0.000;2023-02-04T07:59:15;102563.22;;;19.00;35.20
62976;BME280;49071;0.000;0.000;2023-02-04T08:02:15;102576.31;;;19.03;34.96
62976;BME280;49071;0.000;0.000;2023-02-04T08:05:15;102570.19;;;19.02;35.01
62976;BME280;49071;0.000;0.000;2023-02-04T08:08:16;102578.03;;;19.05;34.84
62976;BME280;49071;0.000;0.000;2023-02-04T08:11:17;102589.41;;;19.06;35.21
62976;BME280;49071;0.000;0.000;2023-02-04T08:14:17;102593.00;;;19.02;35.51
62976;BME280;49071;0.000;0.000;2023-02-04T08:17:17;102602.72;;;18.98;35.02
62976;BME280;49071;0.000;0.000;2023-02-04T08:20:17;102613.41;;;18.91;34.98
62976;BME280;49071;0.000;0.000;2023-02-04T08:23:17;102617.81;;;18.88;34.94
62976;BME280;49071;0.000;0.000;2023-02-04T08:26:18;102623.97;;;18.87;35.09
62976;BME280;49071;0.000;0.000;2023-02-04T08:29:18;102623.94;;;18.91;35.42
62976;BME280;49071;0.000;0.000;2023-02-04T08:32:18;102637.91;;;18.93;35.39
62976;BME280;49071;0.000;0.000;2023-02-04T08:35:18;102629.25;;;18.86;35.46
62976;BME280;49071;0.000;0.000;2023-02-04T08:38:19;102638.22;;;18.77;35.66
62976;BME280;49071;0.000;0.000;2023-02-04T08:41:19;102638.56;;;18.56;35.48
62976;BME280;49071;0.000;0.000;2023-02-04T08:44:19;102650.13;;;18.46;35.93
62976;BME280;49071;0.000;0.000;2023-02-04T08:47:19;102658.16;;;18.38;36.08
62976;BME280;49071;0.000;0.000;2023-02-04T08:50:19;102666.19;;;18.29;35.69
62976;BME280;49071;0.000;0.000;2023-02-04T08:53:19;102671.56;;;18.21;36.31
62976;BME280;49071;0.000;0.000;2023-02-04T08:56:19;102670.78;;;18.16;36.14
62976;BME280;49071;0.000;0.000;2023-02-04T08:59:20;102681.34;;;18.11;36.31
62976;BME280;49071;0.000;0.000;2023-02-04T09:02:23;102676.94;;;18.13;35.96
62976;BME280;49071;0.000;0.000;2023-02-04T09:05:23;102669.88;;;18.17;36.32
62976;BME280;49071;0.000;0.000;2023-02-04T09:08:23;102673.38;;;18.19;36.25
62976;BME280;49071;0.000;0.000;2023-02-04T09:11:23;102676.72;;;18.27;36.10
62976;BME280;49071;0.000;0.000;2023-02-04T09:14:24;102683.59;;;18.34;35.91
62976;BME280;49071;0.000;0.000;2023-02-04T09:17:24;102684.41;;;18.38;35.79
62976;BME280;49071;0.000;0.000;2023-02-04T09:20:24;102684.28;;;18.46;35.78
62976;BME280;49071;0.000;0.000;2023-02-04T09:23:24;102693.75;;;18.56;35.76
62976;BME280;49071;0.000;0.000;2023-02-04T09:26:24;102702.53;;;18.55;35.76
62976;BME280;49071;0.000;0.000;2023-02-04T09:29:25;102704.25;;;18.56;35.57
62976;BME280;49071;0.000;0.000;2023-02-04T09:32:25;102706.78;;;18.62;35.81
62976;BME280;49071;0.000;0.000;2023-02-04T09:35:25;102719.88;;;18.67;35.81
62976;BME280;49071;0.000;0.000;2023-02-04T09:38:25;102725.94;;;18.72;35.96
62976;BME280;49071;0.000;0.000;2023-02-04T09:41:25;102725.81;;;18.78;35.66
62976;BME280;49071;0.000;0.000;2023-02-04T09:44:26;102727.56;;;18.79;35.43
62976;BME280;49071;0.000;0.000;2023-02-04T09:47:26;102733.50;;;18.90;35.31
62976;BME280;49071;0.000;0.000;2023-02-04T09:50:27;102738.50;;;19.04;35.78
62976;BME280;49071;0.000;0.000;2023-02-04T09:53:28;102738.56;;;19.01;35.82
62976;BME280;49071;0.000;0.000;2023-02-04T09:56:29;102735.88;;;19.04;35.65
62976;BME280;49071;0.000;0.000;2023-02-04T09:59:29;102743.94;;;18.95;35.49
62976;BME280;49071;0.000;0.000;2023-02-04T10:02:30;102742.16;;;18.95;35.34
62976;BME280;49071;0.000;0.000;2023-02-04T10:05:31;102745.72;;;18.93;35.71
62976;BME280;49071;0.000;0.000;2023-02-04T10:08:32;102748.47;;;18.85;35.86
62976;BME280;49071;0.000;0.000;2023-02-04T10:11:34;102753.78;;;18.83;36.04
62976;BME280;49071;0.000;0.000;2023-02-04T10:14:35;102769.56;;;18.82;35.86
62976;BME280;49071;0.000;0.000;2023-02-04T10:17:35;102765.31;;;18.75;36.11
62976;BME280;49071;0.000;0.000;2023-02-04T10:20:35;102761.94;;;18.67;36.11
62976;BME280;49071;0.000;0.000;2023-02-04T10:23:36;102775.16;;;18.60;36.41
62976;BME280;49071;0.000;0.000;2023-02-04T10:26:37;102767.41;;;18.51;36.63
62976;BME280;49071;0.000;0.000;2023-02-04T10:29:37;102772.81;;;18.44;36.33
62976;BME280;49071;0.000;0.000;2023-02-04T10:32:39;102774.59;;;18.40;36.41
62976;BME280;49071;0.000;0.000;2023-02-04T10:35:46;102784.31;;;18.36;36.71
62976;BME280;49071;0.000;0.000;2023-02-04T10:38:57;102782.66;;;18.29;36.76
62976;BME280;49071;0.000;0.000;2023-02-04T10:41:58;102787.09;;;18.24;36.82
62976;BME280;49071;0.000;0.000;2023-02-04T10:44:59;102795.84;;;18.26;37.08
62976;BME280;49071;0.000;0.000;2023-02-04T10:47:59;102788.84;;;18.24;37.30
62976;BME280;49071;0.000;0.000;2023-02-04T10:50:59;102792.34;;;18.24;37.14
62976;BME280;49071;0.000;0.000;2023-02-04T10:53:59;102795.78;;;18.29;37.21
62976;BME280;49071;0.000;0.000;2023-02-04T10:57:20;102806.13;;;18.40;37.03
62976;BME280;49071;0.000;0.000;2023-02-04T11:00:22;102807.81;;;18.44;37.39
62976;BME280;49071;0.000;0.000;2023-02-04T11:03:26;102803.44;;;18.46;37.63
62976;BME280;49071;0.000;0.000;2023-02-04T11:06:27;102809.28;;;18.63;37.22
62976;BME280;49071;0.000;0.000;2023-02-04T11:09:28;102815.25;;;18.75;37.31
62976;BME280;49071;0.000;0.000;2023-02-04T11:12:42;102811.63;;;18.82;37.32
62976;BME280;49071;0.000;0.000;2023-02-04T11:15:46;102819.28;;;18.96;36.82
62976;BME280;49071;0.000;0.000;2023-02-04T11:18:48;102816.47;;;19.06;36.71
62976;BME280;49071;0.000;0.000;2023-02-04T11:21:49;102815.41;;;19.17;36.92
62976;BME280;49071;0.000;0.000;2023-02-04T11:24:49;102809.28;;;19.16;36.75
62976;BME280;49071;0.000;0.000;2023-02-04T11:27:50;102815.41;;;19.17;36.70
62976;BME280;49071;0.000;0.000;2023-02-04T11:30:59;102820.66;;;19.18;36.50
62976;BME280;49071;0.000;0.000;2023-02-04T11:37:14;102829.84;;;18.94;36.56
62976;BME280;49071;0.000;0.000;2023-02-04T11:43:21;102829.19;;;18.81;36.32
62976;BME280;49071;0.000;0.000;2023-02-04T11:46:21;102826.59;;;18.78;36.62
62976;BME280;49071;0.000;0.000;2023-02-04T11:49:22;102837.19;;;18.72;36.51
62976;BME280;49071;0.000;0.000;2023-02-04T11:52:23;102829.41;;;18.64;36.63
62976;BME280;49071;0.000;0.000;2023-02-04T11:55:24;102838.25;;;18.59;36.51
62976;BME280;49071;0.000;0.000;2023-02-04T11:58:25;102834.72;;;18.61;36.49
62976;BME280;49071;0.000;0.000;2023-02-04T12:01:31;102830.34;;;18.60;36.91
62976;BME280;49071;0.000;0.000;2023-02-04T12:04:31;102833.81;;;18.64;36.68
62976;BME280;49071;0.000;0.000;2023-02-04T12:07:31;102830.34;;;18.60;36.66
62976;BME280;49071;0.000;0.000;2023-02-04T12:10:32;102833.84;;;18.61;36.54
62976;BME280;49071;0.000;0.000;2023-02-04T12:13:32;102830.34;;;18.60;36.77
62976;BME280;49071;0.000;0.000;2023-02-04T12:17:11;102828.53;;;18.64;36.81
62976;BME280;49071;0.000;0.000;2023-02-04T12:19:59;102833.72;;;18.69;36.53
62976;BME280;49071;0.000;0.000;2023-02-04T12:23:00;102848.56;;;18.74;36.78
62976;BME280;49071;0.000;0.000;2023-02-04T12:26:00;102848.44;;;18.82;36.58
62976;BME280;49071;0.000;0.000;2023-02-04T12:29:00;102850.06;;;18.91;36.47
62976;BME280;49071;0.000;0.000;2023-02-04T12:32:02;102856.09;;;18.97;36.44
62976;BME280;49071;0.000;0.000;2023-02-04T12:35:02;102858.53;;;19.08;36.23
62976;BME280;49071;0.000;0.000;2023-02-04T12:38:03;102858.34;;;19.19;36.22
62976;BME280;49071;0.000;0.000;2023-02-04T12:41:03;102852.06;;;19.27;36.08
62976;BME280;49071;0.000;0.000;2023-02-04T12:44:04;102856.38;;;19.31;35.98
62976;BME280;49071;0.000;0.000;2023-02-04T12:47:04;102849.31;;;19.33;35.67
62976;BME280;49071;0.000;0.000;2023-02-04T12:50:04;102847.59;;;19.32;35.80
62976;BME280;49071;0.000;0.000;2023-02-04T12:53:05;102849.44;;;19.26;35.79
62976;BME280;49071;0.000;0.000;2023-02-04T12:56:05;102856.63;;;19.18;35.68
62976;BME280;49071;0.000;0.000;2023-02-04T12:59:05;102862.00;;;19.11;35.97
62976;BME280;49071;0.000;0.000;2023-02-04T13:02:05;102869.13;;;19.05;36.08
62976;BME280;49071;0.000;0.000;2023-02-04T13:05:06;102865.75;;;18.97;36.07
62976;BME280;49071;0.000;0.000;2023-02-04T13:08:06;102868.53;;;18.87;36.29
62976;BME280;49071;0.000;0.000;2023-02-04T13:11:06;102863.34;;;18.81;36.21
62976;BME280;49071;0.000;0.000;2023-02-04T13:14:06;102869.59;;;18.73;36.40
62976;BME280;49071;0.000;0.000;2023-02-04T13:17:07;102870.56;;;18.67;36.32
62976;BME280;49071;0.000;0.000;2023-02-04T13:20:07;102868.03;;;18.59;36.20
62976;BME280;49071;0.000;0.000;2023-02-04T13:23:08;102871.59;;;18.55;36.47
62976;BME280;49071;0.000;0.000;2023-02-04T13:26:09;102874.25;;;18.54;36.48
62976;BME280;49071;0.000;0.000;2023-02-04T13:29:10;102877.72;;;18.56;36.73
62976;BME280;49071;0.000;0.000;2023-02-04T13:32:10;102886.41;;;18.59;36.68
62976;BME280;49071;0.000;0.000;2023-02-04T13:35:11;102882.88;;;18.63;36.64
62976;BME280;49071;0.000;0.000;2023-02-04T13:38:11;102892.47;;;18.68;36.48
62976;BME280;49071;0.000;0.000;2023-02-04T13:41:11;102892.41;;;18.72;36.42
62976;BME280;49071;0.000;0.000;2023-02-04T13:44:11;102905.50;;;18.77;36.46
62976;BME280;49071;0.000;0.000;2023-02-04T13:47:11;102902.75;;;18.84;36.35
62976;BME280;49071;0.000;0.000;2023-02-04T13:50:11;102907.06;;;18.90;36.40
62976;BME280;49071;0.000;0.000;2023-02-04T13:53:12;102915.75;;;18.94;36.25
62976;BME280;49071;0.000;0.000;2023-02-04T13:56:12;102917.41;;;19.01;36.23
62976;BME280;49071;0.000;0.000;2023-02-04T13:59:12;102920.81;;;19.07;36.04
62976;BME280;49071;0.000;0.000;2023-02-04T14:02:13;102912.00;;;19.08;35.98
62976;BME280;49071;0.000;0.000;2023-02-04T14:05:13;102913.00;;;19.01;36.25
62976;BME280;49071;0.000;0.000;2023-02-04T14:08:13;102920.91;;;19.00;36.29
62976;BME280;49071;0.000;0.000;2023-02-04T14:11:14;102925.34;;;18.96;36.47
62976;BME280;49071;0.000;0.000;2023-02-04T14:14:14;102922.78;;;18.92;36.71
62976;BME280;49071;0.000;0.000;2023-02-04T14:17:14;102927.19;;;18.91;36.60
62976;BME280;49071;0.000;0.000;2023-02-04T14:20:15;102931.63;;;18.86;36.78
62976;BME280;49071;0.000;0.000;2023-02-04T14:23:15;102941.38;;;18.79;36.98
62976;BME280;49071;0.000;0.000;2023-02-04T14:26:15;102937.97;;;18.74;36.93
62976;BME280;49071;0.000;0.000;2023-02-04T14:29:16;102942.38;;;18.69;37.08
62976;BME280;49071;0.000;0.000;2023-02-04T14:32:17;102948.53;;;18.68;37.11
62976;BME280;49071;0.000;0.000;2023-02-04T14:35:17;102962.56;;;18.67;37.32
62976;BME280;49071;0.000;0.000;2023-02-04T14:38:17;102957.31;;;18.65;37.40
62976;BME280;49071;0.000;0.000;2023-02-04T14:41:17;102967.03;;;18.60;37.22
62976;BME280;49071;0.000;0.000;2023-02-04T14:44:20;102961.78;;;18.60;37.61
62976;BME280;49071;0.000;0.000;2023-02-04T14:47:20;102966.25;;;18.52;37.55
62976;BME280;49071;0.000;0.000;2023-02-04T14:50:20;102967.19;;;18.48;37.75
62976;BME280;49071;0.000;0.000;2023-02-04T14:53:25;102965.53;;;18.41;37.86
62976;BME280;49071;0.000;0.000;2023-02-04T14:56:26;102962.91;;;18.41;38.22
62976;BME280;49071;0.000;0.000;2023-02-04T14:59:26;102969.00;;;18.41;38.48
62976;BME280;49071;0.000;0.000;2023-02-04T15:02:26;102969.84;;;18.47;38.63
62976;BME280;49071;0.000;0.000;2023-02-04T15:05:26;102967.97;;;18.55;38.45
62976;BME280;49071;0.000;0.000;2023-02-04T15:08:26;102975.75;;;18.62;38.56
62976;BME280;49071;0.000;0.000;2023-02-04T15:11:27;102966.88;;;18.71;38.23
62976;BME280;49071;0.000;0.000;2023-02-04T15:14:27;102968.56;;;18.80;38.49
62976;BME280;49071;0.000;0.000;2023-02-04T15:17:27;102965.78;;;18.89;38.26
62976;BME280;49071;0.000;0.000;2023-02-04T15:20:27;102970.16;;;18.90;38.33
62976;BME280;49071;0.000;0.000;2023-02-04T15:23:27;102977.94;;;18.96;38.24
62976;BME280;49071;0.000;0.000;2023-02-04T15:26:27;102976.22;;;18.95;38.08
62976;BME280;49071;0.000;0.000;2023-02-04T15:29:28;102974.38;;;19.02;39.00
62976;BME280;49071;0.000;0.000;2023-02-04T15:32:29;102977.91;;;19.01;38.79
62976;BME280;49071;0.000;0.000;2023-02-04T15:35:29;102982.22;;;19.05;39.06
62976;BME280;49071;0.000;0.000;2023-02-04T15:38:29;102980.44;;;19.07;38.99
62976;BME280;49071;0.000;0.000;2023-02-04T15:41:29;102980.38;;;19.11;39.51
62976;BME280;49071;0.000;0.000;2023-02-04T15:44:30;102981.22;;;19.12;39.20
62976;BME280;49071;0.000;0.000;2023-02-04T15:47:30;102983.00;;;19.11;39.46
62976;BME280;49071;0.000;0.000;2023-02-04T15:50:30;102996.16;;;19.11;39.68
62976;BME280;49071;0.000;0.000;2023-02-04T15:53:30;102990.06;;;19.06;39.99
62976;BME280;49071;0.000;0.000;2023-02-04T15:56:30;102994.66;;;18.92;39.84
62976;BME280;49071;0.000;0.000;2023-02-04T15:59:31;102997.41;;;18.83;39.70
62976;BME280;49071;0.000;0.000;2023-02-04T16:02:31;103004.59;;;18.73;39.51
62976;BME280;49071;0.000;0.000;2023-02-04T16:05:31;103003.75;;;18.65;39.74
62976;BME280;49071;0.000;0.000;2023-02-04T16:08:31;103012.59;;;18.61;39.62
62976;BME280;49071;0.000;0.000;2023-02-04T16:11:31;103006.56;;;18.53;39.51
62976;BME280;49071;0.000;0.000;2023-02-04T16:14:32;103009.19;;;18.51;39.44
62976;BME280;49071;0.000;0.000;2023-02-04T16:17:32;103004.84;;;18.50;39.49
62976;BME280;49071;0.000;0.000;2023-02-04T16:20:32;103010.06;;;18.52;39.54
62976;BME280;49071;0.000;0.000;2023-02-04T16:23:32;103010.88;;;18.55;39.37
62976;BME280;49071;0.000;0.000;2023-02-04T16:26:32;103011.69;;;18.62;39.47
62976;BME280;49071;0.000;0.000;2023-02-04T16:29:33;103020.41;;;18.65;39.66
62976;BME280;49071;0.000;0.000;2023-02-04T16:32:33;103035.25;;;18.71;39.24
62976;BME280;49071;0.000;0.000;2023-02-04T16:35:54;103019.47;;;18.74;39.54
62976;BME280;49071;0.000;0.000;2023-02-04T16:38:55;103024.59;;;18.82;39.09
62976;BME280;49071;0.000;0.000;2023-02-04T16:41:57;103031.53;;;18.91;38.77
62976;BME280;49071;0.000;0.000;2023-02-04T16:44:58;103032.34;;;18.93;38.81
62976;BME280;49071;0.000;0.000;2023-02-04T16:47:58;103033.19;;;18.96;38.72
62976;BME280;49071;0.000;0.000;2023-02-04T16:50:58;103040.03;;;19.08;38.14
62976;BME280;49071;0.000;0.000;2023-02-04T16:53:58;103047.00;;;19.12;38.13
62976;BME280;49071;0.000;0.000;2023-02-04T16:56:59;103047.00;;;19.12;38.21
62976;BME280;49071;0.000;0.000;2023-02-04T16:59:59;103054.06;;;19.08;37.77
62976;BME280;49071;0.000;0.000;2023-02-04T17:02:59;103061.13;;;19.05;38.35
62976;BME280;49071;0.000;0.000;2023-02-04T17:06:00;103058.50;;;19.05;39.29
62976;BME280;49071;0.000;0.000;2023-02-04T17:09:00;103067.28;;;19.04;39.35
62976;BME280;49071;0.000;0.000;2023-02-04T17:12:00;103069.94;;;19.01;39.25
62976;BME280;49071;0.000;0.000;2023-02-04T17:15:01;103078.78;;;18.97;39.55
62976;BME280;49071;0.000;0.000;2023-02-04T17:18:01;103083.19;;;18.93;39.15
62976;BME280;49071;0.000;0.000;2023-02-04T17:21:01;103080.63;;;18.88;39.35
62976;BME280;49071;0.000;0.000;2023-02-04T17:24:01;103085.94;;;18.84;39.67
62976;BME280;49071;0.000;0.000;2023-02-04T17:27:02;103084.25;;;18.80;40.29
62976;BME280;49071;0.000;0.000;2023-02-04T17:30:02;103086.09;;;18.72;39.98
62976;BME280;49071;0.000;0.000;2023-02-04T17:33:02;103090.50;;;18.65;39.79
62976;BME280;49071;0.000;0.000;2023-02-04T17:36:03;103093.16;;;18.62;39.91
62976;BME280;49071;0.000;0.000;2023-02-04T17:39:04;103092.38;;;18.55;39.47
62976;BME280;49071;0.000;0.000;2023-02-04T17:42:04;103097.69;;;18.51;39.72
62976;BME280;49071;0.000;0.000;2023-02-04T17:45:04;103102.06;;;18.50;40.01
62976;BME280;49071;0.000;0.000;2023-02-04T17:48:06;103108.19;;;18.49;39.64
62976;BME280;49071;0.000;0.000;2023-02-04T17:51:06;103105.56;;;18.49;39.96
62976;BME280;49071;0.000;0.000;2023-02-04T17:54:08;103116.94;;;18.53;39.61
62976;BME280;49071;0.000;0.000;2023-02-04T17:57:18;103112.53;;;18.55;39.45
62976;BME280;49071;0.000;0.000;2023-02-04T18:00:20;103107.19;;;18.62;39.60
62976;BME280;49071;0.000;0.000;2023-02-04T18:03:21;103110.59;;;18.72;39.47
62976;BME280;49071;0.000;0.000;2023-02-04T18:06:23;103111.41;;;18.80;39.10
62976;BME280;49071;0.000;0.000;2023-02-04T18:09:24;103110.41;;;18.89;39.29
62976;BME280;49071;0.000;0.000;2023-02-04T18:12:26;103109.38;;;19.02;38.75
62976;BME280;49071;0.000;0.000;2023-02-04T18:15:27;103118.91;;;19.09;38.95
62976;BME280;49071;0.000;0.000;2023-02-04T18:18:35;103120.59;;;19.17;38.80
62976;BME280;49071;0.000;0.000;2023-02-04T18:21:35;103120.66;;;19.14;38.93
62976;BME280;49071;0.000;0.000;2023-02-04T18:24:36;103117.94;;;19.17;38.43
62976;BME280;49071;0.000;0.000;2023-02-04T18:27:38;103115.38;;;19.14;38.71
62976;BME280;49071;0.000;0.000;2023-02-04T18:30:38;103117.16;;;19.11;38.65
62976;BME280;49071;0.000;0.000;2023-02-04T18:33:38;103128.66;;;19.04;38.36
62976;BME280;49071;0.000;0.000;2023-02-04T18:36:40;103126.03;;;19.03;38.56
62976;BME280;49071;0.000;0.000;2023-02-04T18:39:40;103116.47;;;18.97;38.40
62976;BME280;49071;0.000;0.000;2023-02-04T18:42:41;103115.63;;;18.94;38.66
62976;BME280;49071;0.000;0.000;2023-02-04T18:45:42;103124.47;;;18.88;38.49
62976;BME280;49071;0.000;0.000;2023-02-04T18:51:43;103126.31;;;18.78;38.55
62976;BME280;49071;0.000;0.000;2023-02-04T18:54:50;103135.13;;;18.73;38.47
62976;BME280;49071;0.000;0.000;2023-02-04T18:57:50;103132.53;;;18.68;38.55
62976;BME280;49071;0.000;0.000;2023-02-04T19:00:52;103136.09;;;18.62;38.61
62976;BME280;49071;0.000;0.000;2023-02-04T19:03:55;103134.44;;;18.52;38.42
62976;BME280;49071;0.000;0.000;2023-02-04T19:06:57;103138.03;;;18.45;38.28
62976;BME280;49071;0.000;0.000;2023-02-04T19:09:58;103140.75;;;18.34;38.55
62976;BME280;49071;0.000;0.000;2023-02-04T19:13:20;103147.78;;;18.34;38.62
62976;BME280;49071;0.000;0.000;2023-02-04T19:16:21;103141.63;;;18.36;38.35
62976;BME280;49071;0.000;0.000;2023-02-04T19:19:38;103145.09;;;18.40;38.52
62976;BME280;49071;0.000;0.000;2023-02-04T19:22:42;103142.44;;;18.41;38.40
62976;BME280;49071;0.000;0.000;2023-02-04T19:25:45;103151.16;;;18.47;38.37
62976;BME280;49071;0.000;0.000;2023-02-04T19:28:46;103153.75;;;18.53;38.10
62976;BME280;49071;0.000;0.000;2023-02-04T19:31:48;103158.06;;;18.58;37.97
62976;BME280;49071;0.000;0.000;2023-02-04T19:34:49;103159.72;;;18.65;38.30
62976;BME280;49071;0.000;0.000;2023-02-04T19:37:54;103164.06;;;18.73;37.81
62976;BME280;49071;0.000;0.000;2023-02-04T19:40:55;103162.22;;;18.82;38.07
62976;BME280;49071;0.000;0.000;2023-02-04T19:47:26;103171.63;;;19.02;37.89
62976;BME280;49071;0.000;0.000;2023-02-04T19:50:28;103180.22;;;19.16;37.59
62976;BME280;49071;0.000;0.000;2023-02-04T19:53:28;103180.16;;;19.24;37.48
62976;BME280;49071;0.000;0.000;2023-02-04T19:56:31;103184.53;;;19.23;37.18
62976;BME280;49071;0.000;0.000;2023-02-04T19:59:32;103182.78;;;19.24;37.19
62976;BME280;49071;0.000;0.000;2023-02-04T20:02:34;103177.56;;;19.21;37.23
62976;BME280;49071;0.000;0.000;2023-02-04T20:05:35;103182.00;;;19.17;37.23
62976;BME280;49071;0.000;0.000;2023-02-04T20:08:40;103176.75;;;19.13;37.39
62976;BME280;49071;0.000;0.000;2023-02-04T20:17:48;103179.50;;;19.05;37.51
62976;BME280;49071;0.000;0.000;2023-02-04T20:20:49;103177.78;;;18.99;37.63
62976;BME280;49071;0.000;0.000;2023-02-04T20:23:49;103183.13;;;18.93;37.46
62976;BME280;49071;0.000;0.000;2023-02-04T20:26:49;103184.94;;;18.86;37.66
62976;BME280;49071;0.000;0.000;2023-02-04T20:29:51;103186.78;;;18.78;37.68
62976;BME280;49071;0.000;0.000;2023-02-04T20:32:53;103188.63;;;18.73;37.81
62976;BME280;49071;0.000;0.000;2023-02-04T20:46:01;103189.66;;;18.51;37.98
62976;BME280;49071;0.000;0.000;2023-02-04T20:49:14;103187.03;;;18.49;37.95
62976;BME280;49071;0.000;0.000;2023-02-04T20:55:35;103188.75;;;18.55;38.11
62976;BME280;49071;0.000;0.000;2023-02-04T20:58:36;103184.34;;;18.60;38.36
62976;BME280;49071;0.000;0.000;2023-02-04T21:01:37;103198.28;;;18.65;38.26
62976;BME280;49071;0.000;0.000;2023-02-04T21:04:38;103202.63;;;18.69;38.05
62976;BME280;49071;0.000;0.000;2023-02-04T21:07:40;103214.84;;;18.76;37.94
62976;BME280;49071;0.000;0.000;2023-02-04T21:10:40;103211.31;;;18.83;37.70
62976;BME280;49071;0.000;0.000;2023-02-04T21:13:40;103224.31;;;18.93;37.56
62976;BME280;49071;0.000;0.000;2023-02-04T21:16:41;103220.72;;;19.03;37.27
62976;BME280;49071;0.000;0.000;2023-02-04T21:19:41;103229.34;;;19.16;37.20
62976;BME280;49071;0.000;0.000;2023-02-04T21:22:41;103225.69;;;19.29;37.16
62976;BME280;49071;0.000;0.000;2023-02-04T21:25:41;103227.31;;;19.39;36.81
62976;BME280;49071;0.000;0.000;2023-02-04T21:28:42;103236.06;;;19.40;37.17
62976;BME280;49071;0.000;0.000;2023-02-04T21:31:42;103234.31;;;19.40;37.14
62976;BME280;49071;0.000;0.000;2023-02-04T21:34:43;103232.66;;;19.34;37.06
62976;BME280;49071;0.000;0.000;2023-02-04T21:37:43;103233.47;;;19.38;37.39
62976;BME280;49071;0.000;0.000;2023-02-04T21:40:44;103237.06;;;19.29;37.24
62976;BME280;49071;0.000;0.000;2023-02-04T21:43:44;103234.47;;;19.26;37.03
62976;BME280;49071;0.000;0.000;2023-02-04T21:46:44;103235.44;;;19.21;36.79
62976;BME280;49071;0.000;0.000;2023-02-04T21:49:44;103239.00;;;19.15;36.82
62976;BME280;49071;0.000;0.000;2023-02-04T21:52:45;103239.06;;;19.09;36.94
62976;BME280;49071;0.000;0.000;2023-02-04T21:55:45;103237.38;;;19.05;37.16
62976;BME280;49071;0.000;0.000;2023-02-04T21:58:45;103225.16;;;18.98;37.21
62976;BME280;49071;0.000;0.000;2023-02-04T22:01:45;103227.88;;;18.90;37.32
62976;BME280;49071;0.000;0.000;2023-02-04T22:04:45;103225.31;;;18.82;37.23
62976;BME280;49071;0.000;0.000;2023-02-04T22:07:46;103227.13;;;18.77;37.54
62976;BME280;49071;0.000;0.000;2023-02-04T22:10:46;103224.56;;;18.70;37.39
62976;BME280;49071;0.000;0.000;2023-02-04T22:13:47;103234.22;;;18.64;37.52
62976;BME280;49071;0.000;0.000;2023-02-04T22:16:47;103236.06;;;18.56;37.91
62976;BME280;49071;0.000;0.000;2023-02-04T22:19:47;103243.09;;;18.51;37.81
62976;BME280;49071;0.000;0.000;2023-02-04T22:22:47;103239.66;;;18.45;37.71
62976;BME280;49071;0.000;0.000;2023-02-04T22:25:48;103247.63;;;18.32;37.35
